sensor_id;sensor_type;location;lat;lon;timestamp;P1;durP1;ratioP1;P2;durP2;ratioP2
2320;SDS011;15376;48.540;9.268;2023-06-24T00:01:20;7.90;;;7.30;;
2320;SDS011;15376;48.540;9.268;2023-06-24T00:03:47;7.93;;;7.27;;
2320;SDS011;15376;48.540;9.268;2023-06-24T00:06:13;7.73;;;6.93;;
2320;SDS011;15376;48.540;9.268;2023-06-24T00:08:43;7.67;;;6.83;;
2320;SDS011;15376;48.540;9.268;2023-06-24T00:11:11;9.03;;;7.97;;
2320;SDS011;15376;48.540;9.268;2023-06-24T00:13:38;7.50;;;6.70;;
2320;SDS011;15376;48.540;9.268;2023-06-24T00:16:04;7.23;;;6.63;;
2320;SDS011;15376;48.540;9.268;2023-06-24T00:18:31;7.50;;;6.90;;
2320;SDS011;15376;48.540;9.268;2023-06-24T00:20:57;7.97;;;7.27;;
2320;SDS011;15376;48.540;9.268;2023-06-24T00:23:22;8.60;;;7.73;;
2320;SDS011;15376;48.540;9.268;2023-06-24T00:25:52;9.13;;;7.93;;
2320;SDS011;15376;48.540;9.268;2023-06-24T00:28:18;12.93;;;7.20;;
2320;SDS011;15376;48.540;9.268;2023-06-24T00:30:43;8.63;;;7.83;;
2320;SDS011;15376;48.540;9.268;2023-06-24T00:33:09;7.20;;;6.50;;
2320;SDS011;15376;48.540;9.268;2023-06-24T00:35:36;8.27;;;7.57;;
2320;SDS011;15376;48.540;9.268;2023-06-24T00:38:02;8.30;;;7.50;;
2320;SDS011;15376;48.540;9.268;2023-06-24T00:40:28;7.93;;;7.20;;
2320;SDS011;15376;48.540;9.268;2023-06-24T00:42:54;7.47;;;6.43;;
2320;SDS011;15376;48.540;9.268;2023-06-24T00:45:20;9.53;;;7.50;;
2320;SDS011;15376;48.540;9.268;2023-06-24T00:47:46;7.83;;;6.50;;
2320;SDS011;15376;48.540;9.268;2023-06-24T00:50:12;8.00;;;6.97;;
2320;SDS011;15376;48.540;9.268;2023-06-24T00:52:38;8.50;;;6.93;;
2320;SDS011;15376;48.540;9.268;2023-06-24T00:55:07;8.00;;;7.20;;
2320;SDS011;15376;48.540;9.268;2023-06-24T00:57:40;7.30;;;6.60;;
2320;SDS011;15376;48.540;9.268;2023-06-24T01:00:07;6.60;;;6.00;;
2320;SDS011;15376;48.540;9.268;2023-06-24T01:02:39;7.17;;;6.50;;
2320;SDS011;15376;48.540;9.268;2023-06-24T01:05:07;7.90;;;7.20;;
2320;SDS011;15376;48.540;9.268;2023-06-24T01:07:33;8.47;;;7.73;;
2320;SDS011;15376;48.540;9.268;2023-06-24T01:10:01;7.33;;;6.63;;
2320;SDS011;15376;48.540;9.268;2023-06-24T01:12:27;6.50;;;5.90;;
2320;SDS011;15376;48.540;9.268;2023-06-24T01:14:52;8.93;;;8.13;;
2320;SDS011;15376;48.540;9.268;2023-06-24T01:17:19;7.47;;;6.77;;
2320;SDS011;15376;48.540;9.268;2023-06-24T01:22:48;7.57;;;6.97;;
2320;SDS011;15376;48.540;9.268;2023-06-24T01:34:20;8.17;;;6.90;;
2320;SDS011;15376;48.540;9.268;2023-06-24T01:37:05;8.13;;;7.10;;
2320;SDS011;15376;48.540;9.268;2023-06-24T01:39:38;8.87;;;6.93;;
2320;SDS011;15376;48.540;9.268;2023-06-24T01:42:11;7.80;;;7.10;;
2320;SDS011;15376;48.540;9.268;2023-06-24T01:44:38;7.87;;;6.83;;
2320;SDS011;15376;48.540;9.268;2023-06-24T01:47:07;7.47;;;6.77;;
2320;SDS011;15376;48.540;9.268;2023-06-24T01:49:34;7.40;;;6.60;;
2320;SDS011;15376;48.540;9.268;2023-06-24T01:52:05;7.40;;;6.70;;
2320;SDS011;15376;48.540;9.268;2023-06-24T01:54:33;8.17;;;7.37;;
2320;SDS011;15376;48.540;9.268;2023-06-24T01:57:00;7.33;;;6.67;;
2320;SDS011;15376;48.540;9.268;2023-06-24T01:59:29;7.10;;;6.50;;
2320;SDS011;15376;48.540;9.268;2023-06-24T02:01:56;7.73;;;6.77;;
2320;SDS011;15376;48.540;9.268;2023-06-24T02:04:22;8.30;;;6.47;;
2320;SDS011;15376;48.540;9.268;2023-06-24T02:06:49;6.40;;;5.90;;
2320;SDS011;15376;48.540;9.268;2023-06-24T02:09:18;7.73;;;7.00;;
2320;SDS011;15376;48.540;9.268;2023-06-24T02:11:46;8.27;;;7.47;;
2320;SDS011;15376;48.540;9.268;2023-06-24T02:14:12;8.80;;;6.23;;
2320;SDS011;15376;48.540;9.268;2023-06-24T02:16:41;7.13;;;6.43;;
2320;SDS011;15376;48.540;9.268;2023-06-24T02:19:07;7.87;;;7.07;;
2320;SDS011;15376;48.540;9.268;2023-06-24T02:21:35;7.43;;;6.80;;
2320;SDS011;15376;48.540;9.268;2023-06-24T02:24:04;8.23;;;7.07;;
2320;SDS011;15376;48.540;9.268;2023-06-24T02:26:30;6.93;;;6.33;;
2320;SDS011;15376;48.540;9.268;2023-06-24T02:28:55;7.33;;;6.53;;
2320;SDS011;15376;48.540;9.268;2023-06-24T02:31:22;7.17;;;6.47;;
2320;SDS011;15376;48.540;9.268;2023-06-24T02:33:47;7.93;;;6.93;;
2320;SDS011;15376;48.540;9.268;2023-06-24T02:36:13;7.97;;;7.17;;
2320;SDS011;15376;48.540;9.268;2023-06-24T02:38:38;12.83;;;7.53;;
2320;SDS011;15376;48.540;9.268;2023-06-24T02:41:04;7.87;;;6.67;;
2320;SDS011;15376;48.540;9.268;2023-06-24T02:43:29;7.23;;;6.63;;
2320;SDS011;15376;48.540;9.268;2023-06-24T02:45:55;7.63;;;6.97;;
2320;SDS011;15376;48.540;9.268;2023-06-24T02:48:25;10.13;;;6.87;;
2320;SDS011;15376;48.540;9.268;2023-06-24T02:50:53;7.77;;;6.57;;
2320;SDS011;15376;48.540;9.268;2023-06-24T02:53:18;7.40;;;6.80;;
2320;SDS011;15376;48.540;9.268;2023-06-24T02:55:44;7.03;;;6.43;;
2320;SDS011;15376;48.540;9.268;2023-06-24T02:58:10;10.13;;;7.67;;
2320;SDS011;15376;48.540;9.268;2023-06-24T03:00:37;6.70;;;6.10;;
2320;SDS011;15376;48.540;9.268;2023-06-24T03:03:03;7.87;;;7.17;;
2320;SDS011;15376;48.540;9.268;2023-06-24T03:05:30;8.57;;;7.30;;
2320;SDS011;15376;48.540;9.268;2023-06-24T03:07:57;6.57;;;5.93;;
2320;SDS011;15376;48.540;9.268;2023-06-24T03:10:23;6.30;;;5.80;;
2320;SDS011;15376;48.540;9.268;2023-06-24T03:12:50;8.40;;;7.07;;
2320;SDS011;15376;48.540;9.268;2023-06-24T03:15:16;8.40;;;5.80;;
2320;SDS011;15376;48.540;9.268;2023-06-24T03:17:41;10.70;;;6.57;;
2320;SDS011;15376;48.540;9.268;2023-06-24T03:20:07;7.10;;;6.40;;
2320;SDS011;15376;48.540;9.268;2023-06-24T03:22:33;7.00;;;6.20;;
2320;SDS011;15376;48.540;9.268;2023-06-24T03:24:58;7.57;;;6.40;;
2320;SDS011;15376;48.540;9.268;2023-06-24T03:27:24;7.77;;;6.80;;
2320;SDS011;15376;48.540;9.268;2023-06-24T03:29:49;6.80;;;6.03;;
2320;SDS011;15376;48.540;9.268;2023-06-24T03:32:15;7.87;;;7.03;;
2320;SDS011;15376;48.540;9.268;2023-06-24T03:34:40;9.83;;;8.30;;
2320;SDS011;15376;48.540;9.268;2023-06-24T03:37:06;11.03;;;6.93;;
2320;SDS011;15376;48.540;9.268;2023-06-24T03:39:31;8.83;;;6.57;;
2320;SDS011;15376;48.540;9.268;2023-06-24T03:41:56;6.50;;;5.90;;
2320;SDS011;15376;48.540;9.268;2023-06-24T03:44:22;7.50;;;6.30;;
2320;SDS011;15376;48.540;9.268;2023-06-24T03:46:47;8.03;;;6.70;;
2320;SDS011;15376;48.540;9.268;2023-06-24T03:49:13;7.73;;;7.10;;
2320;SDS011;15376;48.540;9.268;2023-06-24T03:51:38;10.10;;;7.37;;
2320;SDS011;15376;48.540;9.268;2023-06-24T03:54:03;9.10;;;8.20;;
2320;SDS011;15376;48.540;9.268;2023-06-24T03:56:29;9.80;;;8.73;;
2320;SDS011;15376;48.540;9.268;2023-06-24T03:58:54;10.13;;;8.90;;
2320;SDS011;15376;48.540;9.268;2023-06-24T04:01:19;10.00;;;8.60;;
2320;SDS011;15376;48.540;9.268;2023-06-24T04:03:45;7.90;;;7.20;;
2320;SDS011;15376;48.540;9.268;2023-06-24T04:06:11;13.60;;;8.50;;
2320;SDS011;15376;48.540;9.268;2023-06-24T04:08:36;9.00;;;6.87;;
2320;SDS011;15376;48.540;9.268;2023-06-24T04:11:05;10.00;;;6.90;;
2320;SDS011;15376;48.540;9.268;2023-06-24T04:13:31;8.40;;;7.43;;
2320;SDS011;15376;48.540;9.268;2023-06-24T04:15:57;10.50;;;7.53;;
2320;SDS011;15376;48.540;9.268;2023-06-24T04:18:22;9.87;;;8.87;;
2320;SDS011;15376;48.540;9.268;2023-06-24T04:20:48;7.83;;;6.93;;
2320;SDS011;15376;48.540;9.268;2023-06-24T04:23:13;8.20;;;7.40;;
2320;SDS011;15376;48.540;9.268;2023-06-24T04:25:39;11.43;;;7.47;;
2320;SDS011;15376;48.540;9.268;2023-06-24T04:28:05;10.80;;;6.50;;
2320;SDS011;15376;48.540;9.268;2023-06-24T04:30:31;7.17;;;6.57;;
2320;SDS011;15376;48.540;9.268;2023-06-24T04:32:57;8.00;;;7.00;;
2320;SDS011;15376;48.540;9.268;2023-06-24T04:35:22;10.07;;;7.00;;
2320;SDS011;15376;48.540;9.268;2023-06-24T04:37:47;9.57;;;7.47;;
2320;SDS011;15376;48.540;9.268;2023-06-24T04:40:18;7.83;;;6.83;;
2320;SDS011;15376;48.540;9.268;2023-06-24T04:42:44;7.07;;;6.40;;
2320;SDS011;15376;48.540;9.268;2023-06-24T04:45:13;11.13;;;7.60;;
2320;SDS011;15376;48.540;9.268;2023-06-24T04:47:38;9.30;;;8.23;;
2320;SDS011;15376;48.540;9.268;2023-06-24T04:50:04;8.40;;;7.60;;
2320;SDS011;15376;48.540;9.268;2023-06-24T04:52:29;8.43;;;7.63;;
2320;SDS011;15376;48.540;9.268;2023-06-24T04:54:55;9.27;;;8.37;;
2320;SDS011;15376;48.540;9.268;2023-06-24T04:57:25;9.17;;;8.23;;
2320;SDS011;15376;48.540;9.268;2023-06-24T04:59:55;9.20;;;8.30;;
2320;SDS011;15376;48.540;9.268;2023-06-24T05:02:22;12.07;;;8.23;;
2320;SDS011;15376;48.540;9.268;2023-06-24T05:04:48;9.20;;;7.83;;
2320;SDS011;15376;48.540;9.268;2023-06-24T05:07:13;8.40;;;7.33;;
2320;SDS011;15376;48.540;9.268;2023-06-24T05:09:39;8.27;;;7.57;;
2320;SDS011;15376;48.540;9.268;2023-06-24T05:12:04;8.90;;;8.00;;
2320;SDS011;15376;48.540;9.268;2023-06-24T05:14:30;10.00;;;9.10;;
2320;SDS011;15376;48.540;9.268;2023-06-24T05:16:56;9.73;;;8.83;;
2320;SDS011;15376;48.540;9.268;2023-06-24T05:19:21;10.07;;;9.27;;
2320;SDS011;15376;48.540;9.268;2023-06-24T05:21:46;10.90;;;9.90;;
2320;SDS011;15376;48.540;9.268;2023-06-24T05:24:12;8.70;;;8.00;;
2320;SDS011;15376;48.540;9.268;2023-06-24T05:26:37;10.30;;;8.10;;
2320;SDS011;15376;48.540;9.268;2023-06-24T05:29:02;8.60;;;7.80;;
2320;SDS011;15376;48.540;9.268;2023-06-24T05:31:28;9.17;;;8.20;;
2320;SDS011;15376;48.540;9.268;2023-06-24T05:33:53;8.90;;;8.10;;
2320;SDS011;15376;48.540;9.268;2023-06-24T05:36:19;8.50;;;7.67;;
2320;SDS011;15376;48.540;9.268;2023-06-24T05:38:44;7.90;;;7.10;;
2320;SDS011;15376;48.540;9.268;2023-06-24T05:41:09;8.30;;;7.00;;
2320;SDS011;15376;48.540;9.268;2023-06-24T05:43:35;8.17;;;7.47;;
2320;SDS011;15376;48.540;9.268;2023-06-24T05:46:00;7.67;;;7.07;;
2320;SDS011;15376;48.540;9.268;2023-06-24T05:48:26;8.37;;;7.57;;
2320;SDS011;15376;48.540;9.268;2023-06-24T05:50:51;7.60;;;6.70;;
2320;SDS011;15376;48.540;9.268;2023-06-24T05:53:16;9.97;;;9.10;;
2320;SDS011;15376;48.540;9.268;2023-06-24T05:55:42;8.50;;;7.60;;
2320;SDS011;15376;48.540;9.268;2023-06-24T05:58:07;8.30;;;7.50;;
2320;SDS011;15376;48.540;9.268;2023-06-24T06:00:32;7.77;;;7.07;;
2320;SDS011;15376;48.540;9.268;2023-06-24T06:02:58;8.80;;;8.00;;
2320;SDS011;15376;48.540;9.268;2023-06-24T06:05:23;9.97;;;7.97;;
2320;SDS011;15376;48.540;9.268;2023-06-24T06:07:48;10.33;;;8.37;;
2320;SDS011;15376;48.540;9.268;2023-06-24T06:10:14;7.80;;;7.10;;
2320;SDS011;15376;48.540;9.268;2023-06-24T06:12:42;7.20;;;6.60;;
2320;SDS011;15376;48.540;9.268;2023-06-24T06:15:08;8.80;;;7.03;;
2320;SDS011;15376;48.540;9.268;2023-06-24T06:17:34;7.40;;;6.80;;
2320;SDS011;15376;48.540;9.268;2023-06-24T06:19:59;6.90;;;6.37;;
2320;SDS011;15376;48.540;9.268;2023-06-24T06:22:25;8.00;;;6.97;;
2320;SDS011;15376;48.540;9.268;2023-06-24T06:24:50;8.30;;;7.50;;
2320;SDS011;15376;48.540;9.268;2023-06-24T06:27:15;7.30;;;6.80;;
2320;SDS011;15376;48.540;9.268;2023-06-24T06:29:41;8.27;;;7.57;;
2320;SDS011;15376;48.540;9.268;2023-06-24T06:32:06;8.37;;;7.23;;
2320;SDS011;15376;48.540;9.268;2023-06-24T06:34:32;8.40;;;7.40;;
2320;SDS011;15376;48.540;9.268;2023-06-24T06:36:57;7.67;;;7.07;;
2320;SDS011;15376;48.540;9.268;2023-06-24T06:39:22;7.63;;;6.63;;
2320;SDS011;15376;48.540;9.268;2023-06-24T06:41:48;7.53;;;6.90;;
2320;SDS011;15376;48.540;9.268;2023-06-24T06:44:13;7.53;;;6.93;;
2320;SDS011;15376;48.540;9.268;2023-06-24T06:46:38;7.40;;;6.80;;
2320;SDS011;15376;48.540;9.268;2023-06-24T06:49:04;7.20;;;6.70;;
2320;SDS011;15376;48.540;9.268;2023-06-24T06:51:29;7.17;;;6.57;;
2320;SDS011;15376;48.540;9.268;2023-06-24T06:53:54;8.00;;;7.20;;
2320;SDS011;15376;48.540;9.268;2023-06-24T06:56:22;7.40;;;6.80;;
2320;SDS011;15376;48.540;9.268;2023-06-24T06:58:49;6.43;;;5.93;;
2320;SDS011;15376;48.540;9.268;2023-06-24T07:01:15;6.73;;;6.13;;
2320;SDS011;15376;48.540;9.268;2023-06-24T07:03:40;7.50;;;5.90;;
2320;SDS011;15376;48.540;9.268;2023-06-24T07:06:05;6.00;;;5.50;;
2320;SDS011;15376;48.540;9.268;2023-06-24T07:08:31;6.33;;;5.73;;
2320;SDS011;15376;48.540;9.268;2023-06-24T07:10:56;5.57;;;5.17;;
2320;SDS011;15376;48.540;9.268;2023-06-24T07:13:21;5.47;;;5.07;;
2320;SDS011;15376;48.540;9.268;2023-06-24T07:15:47;5.40;;;5.00;;
2320;SDS011;15376;48.540;9.268;2023-06-24T07:18:12;5.70;;;5.27;;
2320;SDS011;15376;48.540;9.268;2023-06-24T07:20:38;5.60;;;5.10;;
2320;SDS011;15376;48.540;9.268;2023-06-24T07:23:03;6.00;;;5.50;;
2320;SDS011;15376;48.540;9.268;2023-06-24T07:25:29;5.70;;;5.30;;
2320;SDS011;15376;48.540;9.268;2023-06-24T07:27:55;6.20;;;5.60;;
2320;SDS011;15376;48.540;9.268;2023-06-24T07:30:20;6.27;;;4.60;;
2320;SDS011;15376;48.540;9.268;2023-06-24T07:32:46;5.53;;;5.07;;
2320;SDS011;15376;48.540;9.268;2023-06-24T07:35:11;5.80;;;5.30;;
2320;SDS011;15376;48.540;9.268;2023-06-24T07:37:38;5.80;;;5.40;;
2320;SDS011;15376;48.540;9.268;2023-06-24T07:40:04;5.43;;;5.03;;
2320;SDS011;15376;48.540;9.268;2023-06-24T07:42:33;5.70;;;5.10;;
2320;SDS011;15376;48.540;9.268;2023-06-24T07:44:58;6.50;;;4.90;;
2320;SDS011;15376;48.540;9.268;2023-06-24T07:47:23;5.83;;;5.37;;
2320;SDS011;15376;48.540;9.268;2023-06-24T07:49:49;6.50;;;5.90;;
2320;SDS011;15376;48.540;9.268;2023-06-24T07:52:14;6.20;;;5.60;;
2320;SDS011;15376;48.540;9.268;2023-06-24T07:54:40;7.67;;;5.83;;
2320;SDS011;15376;48.540;9.268;2023-06-24T07:57:06;6.17;;;5.70;;
2320;SDS011;15376;48.540;9.268;2023-06-24T07:59:31;5.77;;;5.27;;
2320;SDS011;15376;48.540;9.268;2023-06-24T08:01:57;5.73;;;5.23;;
2320;SDS011;15376;48.540;9.268;2023-06-24T08:04:22;5.80;;;5.23;;
2320;SDS011;15376;48.540;9.268;2023-06-24T08:06:47;6.53;;;5.93;;
2320;SDS011;15376;48.540;9.268;2023-06-24T08:09:13;6.00;;;5.50;;
2320;SDS011;15376;48.540;9.268;2023-06-24T08:11:38;6.07;;;5.47;;
2320;SDS011;15376;48.540;9.268;2023-06-24T08:14:04;8.27;;;5.17;;
2320;SDS011;15376;48.540;9.268;2023-06-24T08:16:30;5.47;;;4.97;;
2320;SDS011;15376;48.540;9.268;2023-06-24T08:18:55;6.40;;;5.80;;
2320;SDS011;15376;48.540;9.268;2023-06-24T08:21:21;5.07;;;4.67;;
2320;SDS011;15376;48.540;9.268;2023-06-24T08:23:46;4.93;;;4.53;;
2320;SDS011;15376;48.540;9.268;2023-06-24T08:26:11;8.13;;;5.43;;
2320;SDS011;15376;48.540;9.268;2023-06-24T08:28:37;6.53;;;5.43;;
2320;SDS011;15376;48.540;9.268;2023-06-24T08:31:02;5.07;;;4.67;;
2320;SDS011;15376;48.540;9.268;2023-06-24T08:33:28;4.73;;;4.33;;
2320;SDS011;15376;48.540;9.268;2023-06-24T08:35:53;4.67;;;4.30;;
2320;SDS011;15376;48.540;9.268;2023-06-24T08:38:18;5.27;;;4.87;;
2320;SDS011;15376;48.540;9.268;2023-06-24T08:40:44;5.37;;;4.87;;
2320;SDS011;15376;48.540;9.268;2023-06-24T08:43:11;5.30;;;4.80;;
2320;SDS011;15376;48.540;9.268;2023-06-24T08:45:37;4.93;;;4.50;;
2320;SDS011;15376;48.540;9.268;2023-06-24T08:48:03;4.90;;;4.50;;
2320;SDS011;15376;48.540;9.268;2023-06-24T08:50:34;5.47;;;4.67;;
2320;SDS011;15376;48.540;9.268;2023-06-24T08:53:02;5.00;;;4.60;;
2320;SDS011;15376;48.540;9.268;2023-06-24T08:55:32;4.60;;;4.30;;
2320;SDS011;15376;48.540;9.268;2023-06-24T08:58:05;4.97;;;4.50;;
2320;SDS011;15376;48.540;9.268;2023-06-24T09:00:30;4.40;;;4.10;;
2320;SDS011;15376;48.540;9.268;2023-06-24T09:02:55;4.47;;;4.17;;
2320;SDS011;15376;48.540;9.268;2023-06-24T09:05:21;5.17;;;4.40;;
2320;SDS011;15376;48.540;9.268;2023-06-24T09:07:47;4.90;;;4.50;;
2320;SDS011;15376;48.540;9.268;2023-06-24T09:10:32;5.13;;;4.73;;
2320;SDS011;15376;48.540;9.268;2023-06-24T09:13:00;5.23;;;4.23;;
2320;SDS011;15376;48.540;9.268;2023-06-24T09:15:30;5.43;;;4.93;;
2320;SDS011;15376;48.540;9.268;2023-06-24T09:17:56;4.30;;;4.00;;
2320;SDS011;15376;48.540;9.268;2023-06-24T09:20:22;4.73;;;4.33;;
2320;SDS011;15376;48.540;9.268;2023-06-24T09:22:47;4.87;;;4.47;;
2320;SDS011;15376;48.540;9.268;2023-06-24T09:25:17;3.77;;;3.47;;
2320;SDS011;15376;48.540;9.268;2023-06-24T09:27:47;5.27;;;4.87;;
2320;SDS011;15376;48.540;9.268;2023-06-24T09:30:20;4.60;;;4.20;;
2320;SDS011;15376;48.540;9.268;2023-06-24T09:32:49;4.80;;;4.40;;
2320;SDS011;15376;48.540;9.268;2023-06-24T09:35:18;5.63;;;4.70;;
2320;SDS011;15376;48.540;9.268;2023-06-24T09:37:54;4.37;;;3.97;;
2320;SDS011;15376;48.540;9.268;2023-06-24T09:40:21;4.63;;;4.33;;
2320;SDS011;15376;48.540;9.268;2023-06-24T09:45:19;5.10;;;4.73;;
2320;SDS011;15376;48.540;9.268;2023-06-24T09:47:51;4.97;;;4.67;;
2320;SDS011;15376;48.540;9.268;2023-06-24T09:50:17;5.47;;;4.97;;
2320;SDS011;15376;48.540;9.268;2023-06-24T09:52:44;4.97;;;4.57;;
2320;SDS011;15376;48.540;9.268;2023-06-24T09:55:11;4.90;;;4.50;;
2320;SDS011;15376;48.540;9.268;2023-06-24T09:57:38;4.27;;;3.93;;
2320;SDS011;15376;48.540;9.268;2023-06-24T10:00:06;4.40;;;4.00;;
2320;SDS011;15376;48.540;9.268;2023-06-24T10:02:32;4.10;;;3.80;;
2320;SDS011;15376;48.540;9.268;2023-06-24T10:04:59;4.17;;;3.87;;
2320;SDS011;15376;48.540;9.268;2023-06-24T10:07:26;4.33;;;3.90;;
2320;SDS011;15376;48.540;9.268;2023-06-24T10:09:52;5.00;;;4.33;;
2320;SDS011;15376;48.540;9.268;2023-06-24T10:12:18;7.30;;;4.17;;
2320;SDS011;15376;48.540;9.268;2023-06-24T10:14:44;4.37;;;4.07;;
2320;SDS011;15376;48.540;9.268;2023-06-24T10:17:10;4.00;;;3.70;;
2320;SDS011;15376;48.540;9.268;2023-06-24T10:19:37;6.93;;;4.40;;
2320;SDS011;15376;48.540;9.268;2023-06-24T10:22:07;8.90;;;4.03;;
2320;SDS011;15376;48.540;9.268;2023-06-24T10:24:38;4.60;;;4.20;;
2320;SDS011;15376;48.540;9.268;2023-06-24T10:27:07;5.60;;;3.67;;
2320;SDS011;15376;48.540;9.268;2023-06-24T10:29:34;4.23;;;3.80;;
2320;SDS011;15376;48.540;9.268;2023-06-24T10:32:03;6.73;;;3.40;;
2320;SDS011;15376;48.540;9.268;2023-06-24T10:37:24;4.07;;;3.70;;
2320;SDS011;15376;48.540;9.268;2023-06-24T10:39:57;3.90;;;3.60;;
2320;SDS011;15376;48.540;9.268;2023-06-24T10:44:49;3.77;;;3.47;;
2320;SDS011;15376;48.540;9.268;2023-06-24T10:47:16;3.93;;;3.63;;
2320;SDS011;15376;48.540;9.268;2023-06-24T10:49:47;3.93;;;3.60;;
2320;SDS011;15376;48.540;9.268;2023-06-24T10:52:13;3.67;;;3.37;;
2320;SDS011;15376;48.540;9.268;2023-06-24T10:54:39;4.03;;;3.60;;
2320;SDS011;15376;48.540;9.268;2023-06-24T10:57:06;3.90;;;3.60;;
2320;SDS011;15376;48.540;9.268;2023-06-24T10:59:35;4.17;;;3.77;;
2320;SDS011;15376;48.540;9.268;2023-06-24T11:02:01;3.80;;;3.50;;
2320;SDS011;15376;48.540;9.268;2023-06-24T11:04:26;4.33;;;3.97;;
2320;SDS011;15376;48.540;9.268;2023-06-24T11:06:58;4.93;;;4.10;;
2320;SDS011;15376;48.540;9.268;2023-06-24T11:09:24;3.27;;;3.07;;
2320;SDS011;15376;48.540;9.268;2023-06-24T11:11:50;3.97;;;3.67;;
2320;SDS011;15376;48.540;9.268;2023-06-24T11:14:15;3.83;;;3.53;;
2320;SDS011;15376;48.540;9.268;2023-06-24T11:16:41;3.77;;;3.47;;
2320;SDS011;15376;48.540;9.268;2023-06-24T11:19:06;4.03;;;3.70;;
2320;SDS011;15376;48.540;9.268;2023-06-24T11:21:32;3.87;;;3.57;;
2320;SDS011;15376;48.540;9.268;2023-06-24T11:24:01;3.80;;;3.50;;
2320;SDS011;15376;48.540;9.268;2023-06-24T11:26:27;3.63;;;3.33;;
2320;SDS011;15376;48.540;9.268;2023-06-24T11:28:53;4.20;;;3.80;;
2320;SDS011;15376;48.540;9.268;2023-06-24T11:31:18;3.50;;;3.20;;
2320;SDS011;15376;48.540;9.268;2023-06-24T11:33:48;3.90;;;3.60;;
2320;SDS011;15376;48.540;9.268;2023-06-24T11:36:16;4.07;;;3.77;;
2320;SDS011;15376;48.540;9.268;2023-06-24T11:38:42;3.30;;;3.10;;
2320;SDS011;15376;48.540;9.268;2023-06-24T11:41:08;4.00;;;3.70;;
2320;SDS011;15376;48.540;9.268;2023-06-24T11:43:33;3.50;;;3.30;;
2320;SDS011;15376;48.540;9.268;2023-06-24T11:45:59;3.17;;;2.93;;
2320;SDS011;15376;48.540;9.268;2023-06-24T11:48:28;3.80;;;3.50;;
2320;SDS011;15376;48.540;9.268;2023-06-24T11:50:53;3.73;;;3.50;;
2320;SDS011;15376;48.540;9.268;2023-06-24T11:53:30;3.87;;;3.57;;
2320;SDS011;15376;48.540;9.268;2023-06-24T11:56:05;3.37;;;3.17;;
2320;SDS011;15376;48.540;9.268;2023-06-24T11:58:33;3.83;;;3.53;;
2320;SDS011;15376;48.540;9.268;2023-06-24T12:01:00;3.53;;;3.33;;
2320;SDS011;15376;48.540;9.268;2023-06-24T12:03:27;4.10;;;3.73;;
2320;SDS011;15376;48.540;9.268;2023-06-24T12:05:54;3.13;;;2.93;;
2320;SDS011;15376;48.540;9.268;2023-06-24T12:08:19;3.83;;;3.53;;
2320;SDS011;15376;48.540;9.268;2023-06-24T12:10:45;4.00;;;3.80;;
2320;SDS011;15376;48.540;9.268;2023-06-24T12:13:11;4.03;;;3.63;;
2320;SDS011;15376;48.540;9.268;2023-06-24T12:15:36;3.90;;;3.60;;
2320;SDS011;15376;48.540;9.268;2023-06-24T12:18:02;5.20;;;4.13;;
2320;SDS011;15376;48.540;9.268;2023-06-24T12:20:28;3.80;;;3.50;;
2320;SDS011;15376;48.540;9.268;2023-06-24T12:22:55;3.70;;;3.40;;
2320;SDS011;15376;48.540;9.268;2023-06-24T12:25:20;5.03;;;4.57;;
2320;SDS011;15376;48.540;9.268;2023-06-24T12:27:46;4.30;;;4.00;;
2320;SDS011;15376;48.540;9.268;2023-06-24T12:30:12;4.23;;;3.80;;
2320;SDS011;15376;48.540;9.268;2023-06-24T12:32:38;3.87;;;3.67;;
2320;SDS011;15376;48.540;9.268;2023-06-24T12:35:04;3.90;;;3.60;;
2320;SDS011;15376;48.540;9.268;2023-06-24T12:37:31;4.03;;;3.73;;
2320;SDS011;15376;48.540;9.268;2023-06-24T12:39:57;3.97;;;3.50;;
2320;SDS011;15376;48.540;9.268;2023-06-24T12:42:23;3.53;;;3.33;;
2320;SDS011;15376;48.540;9.268;2023-06-24T12:44:50;3.07;;;2.87;;
2320;SDS011;15376;48.540;9.268;2023-06-24T12:47:15;4.27;;;3.97;;
2320;SDS011;15376;48.540;9.268;2023-06-24T12:49:40;3.47;;;3.27;;
2320;SDS011;15376;48.540;9.268;2023-06-24T12:52:06;3.53;;;3.23;;
2320;SDS011;15376;48.540;9.268;2023-06-24T12:54:31;3.90;;;3.60;;
2320;SDS011;15376;48.540;9.268;2023-06-24T12:56:56;4.00;;;3.70;;
2320;SDS011;15376;48.540;9.268;2023-06-24T12:59:22;3.90;;;3.60;;
2320;SDS011;15376;48.540;9.268;2023-06-24T13:01:48;6.33;;;3.77;;
2320;SDS011;15376;48.540;9.268;2023-06-24T13:04:13;4.03;;;3.73;;
2320;SDS011;15376;48.540;9.268;2023-06-24T13:06:38;4.20;;;3.90;;
2320;SDS011;15376;48.540;9.268;2023-06-24T13:09:05;3.73;;;3.30;;
2320;SDS011;15376;48.540;9.268;2023-06-24T13:11:30;4.00;;;3.63;;
2320;SDS011;15376;48.540;9.268;2023-06-24T13:13:55;3.90;;;3.60;;
2320;SDS011;15376;48.540;9.268;2023-06-24T13:16:21;3.70;;;3.40;;
2320;SDS011;15376;48.540;9.268;2023-06-24T13:18:46;3.87;;;3.57;;
2320;SDS011;15376;48.540;9.268;2023-06-24T13:21:12;4.10;;;3.70;;
2320;SDS011;15376;48.540;9.268;2023-06-24T13:23:38;4.77;;;4.37;;
2320;SDS011;15376;48.540;9.268;2023-06-24T13:26:05;4.30;;;4.00;;
2320;SDS011;15376;48.540;9.268;2023-06-24T13:28:30;3.60;;;3.27;;
2320;SDS011;15376;48.540;9.268;2023-06-24T13:30:56;3.73;;;3.43;;
2320;SDS011;15376;48.540;9.268;2023-06-24T13:33:22;4.33;;;3.93;;
2320;SDS011;15376;48.540;9.268;2023-06-24T13:35:47;4.63;;;4.23;;
2320;SDS011;15376;48.540;9.268;2023-06-24T13:38:14;4.20;;;3.83;;
2320;SDS011;15376;48.540;9.268;2023-06-24T13:40:40;4.00;;;3.60;;
2320;SDS011;15376;48.540;9.268;2023-06-24T13:43:05;4.13;;;3.80;;
2320;SDS011;15376;48.540;9.268;2023-06-24T13:45:31;4.10;;;3.70;;
2320;SDS011;15376;48.540;9.268;2023-06-24T13:47:56;4.30;;;4.00;;
2320;SDS011;15376;48.540;9.268;2023-06-24T13:50:21;3.73;;;3.53;;
2320;SDS011;15376;48.540;9.268;2023-06-24T13:52:47;3.60;;;3.40;;
2320;SDS011;15376;48.540;9.268;2023-06-24T13:55:12;3.77;;;3.50;;
2320;SDS011;15376;48.540;9.268;2023-06-24T13:57:37;4.40;;;4.10;;
2320;SDS011;15376;48.540;9.268;2023-06-24T14:00:03;4.20;;;3.80;;
2320;SDS011;15376;48.540;9.268;2023-06-24T14:02:28;4.40;;;4.10;;
2320;SDS011;15376;48.540;9.268;2023-06-24T14:04:54;4.23;;;3.93;;
2320;SDS011;15376;48.540;9.268;2023-06-24T14:07:19;4.13;;;3.93;;
2320;SDS011;15376;48.540;9.268;2023-06-24T14:09:44;3.87;;;3.67;;
2320;SDS011;15376;48.540;9.268;2023-06-24T14:12:10;4.17;;;3.83;;
2320;SDS011;15376;48.540;9.268;2023-06-24T14:14:35;3.57;;;3.37;;
2320;SDS011;15376;48.540;9.268;2023-06-24T14:17:02;9.73;;;4.13;;
2320;SDS011;15376;48.540;9.268;2023-06-24T14:19:27;4.00;;;3.70;;
2320;SDS011;15376;48.540;9.268;2023-06-24T14:21:53;4.40;;;4.10;;
2320;SDS011;15376;48.540;9.268;2023-06-24T14:24:18;4.17;;;3.73;;
2320;SDS011;15376;48.540;9.268;2023-06-24T14:26:44;5.10;;;4.60;;
2320;SDS011;15376;48.540;9.268;2023-06-24T14:29:09;3.80;;;3.60;;
2320;SDS011;15376;48.540;9.268;2023-06-24T14:31:35;7.80;;;3.70;;
2320;SDS011;15376;48.540;9.268;2023-06-24T14:34:00;4.17;;;3.87;;
2320;SDS011;15376;48.540;9.268;2023-06-24T14:36:25;4.70;;;4.40;;
2320;SDS011;15376;48.540;9.268;2023-06-24T14:38:51;3.90;;;3.60;;
2320;SDS011;15376;48.540;9.268;2023-06-24T14:41:16;3.50;;;3.30;;
2320;SDS011;15376;48.540;9.268;2023-06-24T14:43:42;3.80;;;3.60;;
2320;SDS011;15376;48.540;9.268;2023-06-24T14:46:07;3.90;;;3.60;;
2320;SDS011;15376;48.540;9.268;2023-06-24T14:48:32;4.30;;;4.00;;
2320;SDS011;15376;48.540;9.268;2023-06-24T14:50:57;3.87;;;3.67;;
2320;SDS011;15376;48.540;9.268;2023-06-24T14:53:23;3.43;;;3.23;;
2320;SDS011;15376;48.540;9.268;2023-06-24T14:55:48;3.77;;;3.57;;
2320;SDS011;15376;48.540;9.268;2023-06-24T14:58:13;4.27;;;3.87;;
2320;SDS011;15376;48.540;9.268;2023-06-24T15:00:39;4.30;;;4.00;;
2320;SDS011;15376;48.540;9.268;2023-06-24T15:03:04;3.50;;;3.30;;
2320;SDS011;15376;48.540;9.268;2023-06-24T15:05:32;4.47;;;4.07;;
2320;SDS011;15376;48.540;9.268;2023-06-24T15:07:59;5.20;;;4.03;;
2320;SDS011;15376;48.540;9.268;2023-06-24T15:10:24;4.07;;;3.80;;
2320;SDS011;15376;48.540;9.268;2023-06-24T15:12:49;4.00;;;3.70;;
2320;SDS011;15376;48.540;9.268;2023-06-24T15:15:15;3.80;;;3.50;;